createdAt,value
2018-09-03T00:00:22.082Z,1006.29
2018-09-03T00:01:22.110Z,1006.29
2018-09-03T00:02:22.167Z,1006.26
2018-09-03T00:03:22.151Z,1006.27
2018-09-03T00:04:22.170Z,1006.29
2018-09-03T00:05:23.048Z,1006.29
2018-09-03T00:06:22.213Z,1006.29
2018-09-03T00:07:22.237Z,1006.31
2018-09-03T00:08:22.264Z,1006.33
2018-09-03T00:09:22.283Z,1006.26
2018-09-03T00:10:22.301Z,1006.28
2018-09-03T00:11:22.327Z,1006.27
2018-09-03T00:12:22.391Z,1006.34
2018-09-03T00:13:22.390Z,1006.28
2018-09-03T00:14:22.394Z,1006.24
2018-09-03T00:15:22.442Z,1006.24
2018-09-03T00:16:22.452Z,1006.23
2018-09-03T00:17:22.501Z,1006.21
2018-09-03T00:18:22.486Z,1006.17
2018-09-03T00:19:22.505Z,1006.17
2018-09-03T00:20:22.529Z,1006.15
2018-09-03T00:21:22.548Z,1006.14
2018-09-03T00:22:22.566Z,1006.12
2018-09-03T00:23:22.585Z,1006.13
2018-09-03T00:24:22.620Z,1006.17
2018-09-03T00:25:22.633Z,1006.15
2018-09-03T00:26:22.659Z,1006.17
2018-09-03T00:27:22.673Z,1006.17
2018-09-03T00:28:22.700Z,1006.16
2018-09-03T00:29:22.727Z,1006.16
2018-09-03T00:30:22.746Z,1006.19
2018-09-03T00:31:22.761Z,1006.13
2018-09-03T00:32:22.788Z,1006.12
2018-09-03T00:33:22.817Z,1006.09
2018-09-03T00:34:22.848Z,1006.13
2018-09-03T00:35:22.858Z,1006.07
2018-09-03T00:36:22.874Z,1006.07
2018-09-03T00:37:22.896Z,1006.05
2018-09-03T00:38:22.917Z,1006.08
2018-09-03T00:39:22.945Z,1006.08
2018-09-03T00:40:22.966Z,1006.09
2018-09-03T00:41:22.985Z,1006.10
2018-09-03T00:42:23.010Z,1006.08
2018-09-03T00:43:23.031Z,1006.11
2018-09-03T00:44:23.055Z,1006.12
2018-09-03T00:45:23.086Z,1006.14
2018-09-03T00:46:23.101Z,1006.10
2018-09-03T00:47:23.164Z,1006.12
2018-09-03T00:48:23.144Z,1006.13
2018-09-03T00:49:23.164Z,1006.13
2018-09-03T00:50:23.186Z,1006.16
2018-09-03T00:51:23.213Z,1006.17
2018-09-03T00:52:23.232Z,1006.22
2018-09-03T00:53:23.253Z,1006.23
2018-09-03T00:54:23.270Z,1006.27
2018-09-03T00:55:23.291Z,1006.32
2018-09-03T00:56:23.320Z,1006.33
2018-09-03T00:57:23.341Z,1006.35
2018-09-03T00:58:23.352Z,1006.40
2018-09-03T00:59:23.384Z,1006.39
2018-09-03T01:00:23.519Z,1006.45
2018-09-03T01:01:23.461Z,1006.49
2018-09-03T01:02:23.450Z,1006.52
2018-09-03T01:03:23.472Z,1006.51
2018-09-03T01:04:23.497Z,1006.56
2018-09-03T01:05:23.516Z,1006.60
2018-09-03T01:06:23.530Z,1006.64
2018-09-03T01:07:23.557Z,1006.65
2018-09-03T01:08:23.583Z,1006.66
2018-09-03T01:09:23.613Z,1006.71
2018-09-03T01:10:23.635Z,1006.70
2018-09-03T01:11:23.716Z,1006.74
2018-09-03T01:12:23.674Z,1006.71
2018-09-03T01:13:23.696Z,1006.74
2018-09-03T01:14:23.719Z,1006.74
2018-09-03T01:15:23.737Z,1006.74
2018-09-03T01:16:23.762Z,1006.74
2018-09-03T01:17:23.805Z,1006.76
2018-09-03T01:18:23.796Z,1006.73
2018-09-03T01:19:23.815Z,1006.76
2018-09-03T01:20:23.848Z,1006.74
2018-09-03T01:21:23.869Z,1006.71
2018-09-03T01:22:23.890Z,1006.72
2018-09-03T01:23:23.912Z,1006.75
2018-09-03T01:24:23.936Z,1006.76
2018-09-03T01:25:23.957Z,1006.77
2018-09-03T01:26:23.979Z,1006.77
2018-09-03T01:27:24.006Z,1006.76
2018-09-03T01:28:24.028Z,1006.82
2018-09-03T01:29:24.063Z,1006.81
2018-09-03T01:30:24.060Z,1006.79
2018-09-03T01:31:24.087Z,1006.80
2018-09-03T01:32:24.108Z,1006.83
2018-09-03T01:33:24.133Z,1006.82
2018-09-03T01:34:24.158Z,1006.78
2018-09-03T01:35:24.303Z,1006.77
2018-09-03T01:36:24.197Z,1006.79
2018-09-03T01:37:24.217Z,1006.76
2018-09-03T01:38:24.238Z,1006.68
2018-09-03T01:39:24.297Z,1006.72
2018-09-03T01:40:24.286Z,1006.72
2018-09-03T01:41:24.303Z,1006.67
2018-09-03T01:42:24.365Z,1006.65
2018-09-03T01:43:24.349Z,1006.62
2018-09-03T01:44:24.363Z,1006.57
2018-09-03T01:45:24.400Z,1006.52
2018-09-03T01:46:25.084Z,1006.46
2018-09-03T01:47:24.445Z,1006.46
2018-09-03T01:48:24.458Z,1006.43
2018-09-03T01:49:24.484Z,1006.45
2018-09-03T01:50:25.094Z,1006.41
2018-09-03T01:51:24.531Z,1006.41
2018-09-03T01:52:24.543Z,1006.38
2018-09-03T01:53:24.569Z,1006.42
2018-09-03T01:54:24.590Z,1006.36
2018-09-03T01:55:24.614Z,1006.36
2018-09-03T01:56:24.639Z,1006.34
2018-09-03T01:57:24.659Z,1006.32
2018-09-03T01:58:24.683Z,1006.35
2018-09-03T01:59:24.738Z,1006.31
2018-09-03T02:00:24.729Z,1006.31
2018-09-03T02:01:24.756Z,1006.28
2018-09-03T02:02:24.769Z,1006.27
2018-09-03T02:03:24.794Z,1006.24
2018-09-03T02:04:24.841Z,1006.26
2018-09-03T02:05:24.838Z,1006.30
2018-09-03T02:06:24.864Z,1006.27
2018-09-03T02:07:24.897Z,1006.25
2018-09-03T02:08:24.901Z,1006.31
2018-09-03T02:09:24.927Z,1006.28
2018-09-03T02:10:24.958Z,1006.32
2018-09-03T02:11:24.972Z,1006.30
2018-09-03T02:12:24.988Z,1006.28
2018-09-03T02:13:25.006Z,1006.25
2018-09-03T02:14:25.031Z,1006.24
2018-09-03T02:15:25.053Z,1006.21
2018-09-03T02:16:25.076Z,1006.23
2018-09-03T02:17:25.098Z,1006.24
2018-09-03T02:18:25.121Z,1006.24
2018-09-03T02:19:25.141Z,1006.24
2018-09-03T02:20:25.163Z,1006.23
2018-09-03T02:21:25.181Z,1006.21
2018-09-03T02:22:25.213Z,1006.18
2018-09-03T02:23:25.229Z,1006.16
2018-09-03T02:24:25.256Z,1006.14
2018-09-03T02:25:25.280Z,1006.16
2018-09-03T02:26:25.310Z,1006.18
2018-09-03T02:27:25.320Z,1006.18
2018-09-03T02:28:25.342Z,1006.16
2018-09-03T02:29:25.367Z,1006.12
2018-09-03T02:30:25.383Z,1006.14
2018-09-03T02:31:25.397Z,1006.14
2018-09-03T02:32:25.438Z,1006.13
2018-09-03T02:33:25.450Z,1006.19
2018-09-03T02:34:25.468Z,1006.14
2018-09-03T02:35:25.494Z,1006.16
2018-09-03T02:36:25.581Z,1006.12
2018-09-03T02:37:25.534Z,1006.14
2018-09-03T02:38:25.670Z,1006.12
2018-09-03T02:39:25.603Z,1006.10
2018-09-03T02:40:25.615Z,1006.10
2018-09-03T02:41:25.631Z,1006.08
2018-09-03T02:42:25.651Z,1006.08
2018-09-03T02:43:25.665Z,1006.12
2018-09-03T02:44:25.691Z,1006.13
2018-09-03T02:45:25.709Z,1006.14
2018-09-03T02:46:25.736Z,1006.08
2018-09-03T02:47:25.758Z,1006.09
2018-09-03T02:48:25.776Z,1006.08
2018-09-03T02:49:25.868Z,1006.07
2018-09-03T02:50:25.821Z,1006.06
2018-09-03T02:51:25.843Z,1006.05
2018-09-03T02:52:25.866Z,1006.05
2018-09-03T02:53:25.889Z,1006.03
2018-09-03T02:54:25.907Z,1006.04
2018-09-03T02:55:25.952Z,1006.04
2018-09-03T02:56:25.956Z,1006.03
2018-09-03T02:57:25.974Z,1006.00
2018-09-03T02:58:25.997Z,1006.04
2018-09-03T02:59:26.019Z,1006.00
2018-09-03T03:00:26.136Z,1005.99
2018-09-03T03:01:26.060Z,1006.00
2018-09-03T03:02:26.096Z,1005.97
2018-09-03T03:03:26.108Z,1005.99
2018-09-03T03:04:26.133Z,1006.01
2018-09-03T03:05:26.156Z,1005.99
2018-09-03T03:06:26.173Z,1006.03
2018-09-03T03:07:26.213Z,1006.00
2018-09-03T03:08:26.217Z,1005.96
2018-09-03T03:09:26.238Z,1005.93
2018-09-03T03:10:26.259Z,1005.95
2018-09-03T03:11:26.281Z,1005.91
2018-09-03T03:12:26.300Z,1005.93
2018-09-03T03:13:26.320Z,1005.93
2018-09-03T03:14:26.357Z,1005.89
2018-09-03T03:15:26.371Z,1005.91
2018-09-03T03:16:26.388Z,1005.96
2018-09-03T03:17:26.416Z,1005.90
2018-09-03T03:18:26.441Z,1005.92
2018-09-03T03:19:26.459Z,1005.95
2018-09-03T03:20:26.482Z,1005.93
2018-09-03T03:21:26.503Z,1005.94
2018-09-03T03:22:26.518Z,1005.90
2018-09-03T03:23:26.545Z,1005.94
2018-09-03T03:24:26.559Z,1005.90
2018-09-03T03:25:26.612Z,1005.93
2018-09-03T03:26:26.608Z,1005.92
2018-09-03T03:27:26.632Z,1005.88
2018-09-03T03:28:26.658Z,1005.88
2018-09-03T03:29:26.676Z,1005.90
2018-09-03T03:30:26.717Z,1005.85
2018-09-03T03:31:26.719Z,1005.87
2018-09-03T03:32:26.741Z,1005.86
2018-09-03T03:33:26.768Z,1005.82
2018-09-03T03:34:26.781Z,1005.79
2018-09-03T03:35:26.815Z,1005.79
2018-09-03T03:36:26.832Z,1005.78
2018-09-03T03:37:26.866Z,1005.72
2018-09-03T03:38:26.871Z,1005.76
2018-09-03T03:39:26.890Z,1005.74
2018-09-03T03:40:26.919Z,1005.71
2018-09-03T03:41:26.976Z,1005.72
2018-09-03T03:42:26.961Z,1005.72
2018-09-03T03:43:26.982Z,1005.67
2018-09-03T03:44:27.006Z,1005.69
2018-09-03T03:45:27.023Z,1005.68
2018-09-03T03:46:27.049Z,1005.67
2018-09-03T03:47:27.076Z,1005.66
2018-09-03T03:48:27.143Z,1005.59
2018-09-03T03:49:27.117Z,1005.58
2018-09-03T03:50:27.138Z,1005.59
2018-09-03T03:51:27.155Z,1005.58
2018-09-03T03:52:27.208Z,1005.55
2018-09-03T03:53:27.204Z,1005.60
2018-09-03T03:54:27.217Z,1005.54
2018-09-03T03:55:27.246Z,1005.56
2018-09-03T03:56:27.273Z,1005.55
2018-09-03T03:57:27.287Z,1005.58
2018-09-03T03:58:27.317Z,1005.57
2018-09-03T03:59:27.329Z,1005.57
2018-09-03T04:00:27.355Z,1005.56
2018-09-03T04:01:27.378Z,1005.54
2018-09-03T04:02:27.397Z,1005.53
2018-09-03T04:03:27.443Z,1005.50
2018-09-03T04:04:27.437Z,1005.51
2018-09-03T04:05:27.485Z,1005.52
2018-09-03T04:06:27.491Z,1005.50
2018-09-03T04:07:27.505Z,1005.51
2018-09-03T04:08:27.530Z,1005.51
2018-09-03T04:09:27.555Z,1005.52
2018-09-03T04:10:27.567Z,1005.55
2018-09-03T04:11:28.148Z,1005.54
2018-09-03T04:12:27.612Z,1005.51
2018-09-03T04:13:27.636Z,1005.53
2018-09-03T04:14:27.655Z,1005.54
2018-09-03T04:15:27.684Z,1005.53
2018-09-03T04:16:27.767Z,1005.55
2018-09-03T04:17:27.728Z,1005.56
2018-09-03T04:18:27.746Z,1005.60
2018-09-03T04:19:27.762Z,1005.57
2018-09-03T04:20:27.787Z,1005.57
2018-09-03T04:21:27.815Z,1005.61
2018-09-03T04:22:27.832Z,1005.59
2018-09-03T04:23:28.002Z,1005.62
2018-09-03T04:24:27.877Z,1005.60
2018-09-03T04:25:27.894Z,1005.64
2018-09-03T04:26:27.930Z,1005.61
2018-09-03T04:27:27.942Z,1005.60
2018-09-03T04:28:27.980Z,1005.61
2018-09-03T04:29:28.656Z,1005.61
2018-09-03T04:30:28.011Z,1005.58
2018-09-03T04:31:28.066Z,1005.61
2018-09-03T04:32:28.064Z,1005.60
2018-09-03T04:33:28.072Z,1005.60
2018-09-03T04:34:28.092Z,1005.61
2018-09-03T04:35:28.138Z,1005.62
2018-09-03T04:36:28.137Z,1005.58
2018-09-03T04:37:28.165Z,1005.60
2018-09-03T04:38:28.177Z,1005.63
2018-09-03T04:39:28.199Z,1005.61
2018-09-03T04:40:28.225Z,1005.61
2018-09-03T04:41:28.295Z,1005.63
2018-09-03T04:42:28.266Z,1005.62
2018-09-03T04:43:28.291Z,1005.61
2018-09-03T04:44:28.314Z,1005.64
2018-09-03T04:45:28.342Z,1005.65
2018-09-03T04:46:28.363Z,1005.63
2018-09-03T04:47:28.378Z,1005.62
2018-09-03T04:48:28.410Z,1005.60
2018-09-03T04:49:28.426Z,1005.59
2018-09-03T04:50:28.448Z,1005.57
2018-09-03T04:51:28.506Z,1005.55
2018-09-03T04:52:28.487Z,1005.48
2018-09-03T04:53:28.509Z,1005.46
2018-09-03T04:54:29.206Z,1005.45
2018-09-03T04:55:28.564Z,1005.41
2018-09-03T04:56:28.581Z,1005.40
2018-09-03T04:57:28.602Z,1005.44
2018-09-03T04:58:28.618Z,1005.40
2018-09-03T04:59:28.643Z,1005.44
2018-09-03T05:00:28.665Z,1005.40
2018-09-03T05:01:28.685Z,1005.45
2018-09-03T05:02:28.708Z,1005.43
2018-09-03T05:03:29.663Z,1005.44
2018-09-03T05:04:28.753Z,1005.45
2018-09-03T05:05:28.785Z,1005.41
2018-09-03T05:06:28.820Z,1005.46
2018-09-03T05:07:28.816Z,1005.44
2018-09-03T05:08:28.844Z,1005.39
2018-09-03T05:09:28.860Z,1005.36
2018-09-03T05:10:28.880Z,1005.42
2018-09-03T05:11:28.904Z,1005.40
2018-09-03T05:12:28.935Z,1005.40
2018-09-03T05:13:29.038Z,1005.40
2018-09-03T05:14:28.968Z,1005.45
2018-09-03T05:15:28.992Z,1005.42
2018-09-03T05:16:29.023Z,1005.41
2018-09-03T05:17:29.030Z,1005.46
2018-09-03T05:18:29.055Z,1005.44
2018-09-03T05:19:29.118Z,1005.50
2018-09-03T05:20:29.097Z,1005.47
2018-09-03T05:21:29.126Z,1005.54
2018-09-03T05:22:29.144Z,1005.55
2018-09-03T05:23:29.178Z,1005.53
2018-09-03T05:24:29.187Z,1005.55
2018-09-03T05:25:29.212Z,1005.55
2018-09-03T05:26:29.223Z,1005.59
2018-09-03T05:27:29.251Z,1005.59
2018-09-03T05:28:29.272Z,1005.59
2018-09-03T05:29:29.295Z,1005.63
2018-09-03T05:30:29.345Z,1005.64
2018-09-03T05:31:29.336Z,1005.63
2018-09-03T05:32:29.455Z,1005.66
2018-09-03T05:33:29.383Z,1005.69
2018-09-03T05:34:29.422Z,1005.64
2018-09-03T05:35:29.446Z,1005.67
2018-09-03T05:36:29.449Z,1005.69
2018-09-03T05:37:29.483Z,1005.66
2018-09-03T05:38:29.490Z,1005.67
2018-09-03T05:39:29.514Z,1005.65
2018-09-03T05:40:29.544Z,1005.62
2018-09-03T05:41:29.560Z,1005.61
2018-09-03T05:43:29.724Z,1005.65
2018-09-03T05:44:29.621Z,1005.67
2018-09-03T05:45:29.647Z,1005.69
2018-09-03T05:46:29.676Z,1005.71
2018-09-03T05:47:29.684Z,1005.72
2018-09-03T05:48:29.743Z,1005.72
2018-09-03T05:49:29.734Z,1005.74
2018-09-03T05:50:29.809Z,1005.71
2018-09-03T05:51:29.780Z,1005.75
2018-09-03T05:52:29.797Z,1005.78
2018-09-03T05:54:29.877Z,1005.78
2018-09-03T05:55:29.865Z,1005.80
2018-09-03T05:56:29.877Z,1005.78
2018-09-03T05:57:29.906Z,1005.73
2018-09-03T05:58:29.927Z,1005.74
2018-09-03T05:59:29.953Z,1005.76
2018-09-03T06:00:29.978Z,1005.71
2018-09-03T06:01:30.017Z,1005.74
2018-09-03T06:02:30.013Z,1005.78
2018-09-03T06:03:30.040Z,1005.74
2018-09-03T06:04:30.052Z,1005.77
2018-09-03T06:05:30.205Z,1005.76
2018-09-03T06:06:30.105Z,1005.70
2018-09-03T06:07:30.121Z,1005.73
2018-09-03T06:08:30.145Z,1005.75
2018-09-03T06:09:30.166Z,1005.74
2018-09-03T06:10:30.224Z,1005.79
2018-09-03T06:11:30.215Z,1005.77
2018-09-03T06:12:30.235Z,1005.75
2018-09-03T06:13:30.251Z,1005.75
2018-09-03T06:14:30.277Z,1005.76
2018-09-03T06:15:30.304Z,1005.73
2018-09-03T06:16:30.322Z,1005.72
2018-09-03T06:17:30.337Z,1005.74
2018-09-03T06:18:30.452Z,1005.74
2018-09-03T06:19:30.388Z,1005.76
2018-09-03T06:20:30.413Z,1005.72
2018-09-03T06:21:30.432Z,1005.72
2018-09-03T06:22:30.458Z,1005.70
2018-09-03T06:23:30.487Z,1005.71
2018-09-03T06:24:30.505Z,1005.74
2018-09-03T06:25:30.516Z,1005.75
2018-09-03T06:26:30.541Z,1005.74
2018-09-03T06:27:30.562Z,1005.73
2018-09-03T06:28:30.580Z,1005.73
2018-09-03T06:29:30.608Z,1005.78
2018-09-03T06:30:30.630Z,1005.75
2018-09-03T06:31:30.644Z,1005.80
2018-09-03T06:32:30.676Z,1005.78
2018-09-03T06:33:30.693Z,1005.78
2018-09-03T06:34:30.717Z,1005.78
2018-09-03T06:35:30.735Z,1005.76
2018-09-03T06:36:30.756Z,1005.78
2018-09-03T06:37:30.791Z,1005.75
2018-09-03T06:38:30.818Z,1005.74
2018-09-03T06:39:30.830Z,1005.78
2018-09-03T06:40:30.857Z,1005.75
2018-09-03T06:41:30.867Z,1005.74
2018-09-03T06:42:30.902Z,1005.75
2018-09-03T06:43:30.920Z,1005.74
2018-09-03T06:44:30.941Z,1005.77
2018-09-03T06:45:30.979Z,1005.76
2018-09-03T06:46:30.983Z,1005.77
2018-09-03T06:47:31.007Z,1005.78
2018-09-03T06:48:31.021Z,1005.74
2018-09-03T06:49:31.049Z,1005.80
2018-09-03T06:50:31.075Z,1005.80
2018-09-03T06:51:31.092Z,1005.79
2018-09-03T06:52:31.112Z,1005.79
2018-09-03T06:53:31.263Z,1005.75
2018-09-03T06:54:31.148Z,1005.79
2018-09-03T06:55:31.180Z,1005.74
2018-09-03T06:56:31.718Z,1005.74
2018-09-03T06:57:31.226Z,1005.81
2018-09-03T06:58:31.244Z,1005.74
2018-09-03T06:59:31.273Z,1005.73
2018-09-03T07:00:31.288Z,1005.75
2018-09-03T07:02:31.331Z,1005.76
2018-09-03T07:03:31.348Z,1005.74
2018-09-03T07:04:31.375Z,1005.70
2018-09-03T07:05:31.392Z,1005.71
2018-09-03T07:06:31.409Z,1005.74
2018-09-03T07:07:31.436Z,1005.73
2018-09-03T07:08:31.455Z,1005.78
2018-09-03T07:09:31.482Z,1005.75
2018-09-03T07:10:31.501Z,1005.77
2018-09-03T07:11:31.533Z,1005.76
2018-09-03T07:12:31.544Z,1005.76
2018-09-03T07:13:31.570Z,1005.79
2018-09-03T07:14:31.593Z,1005.76
2018-09-03T07:15:31.618Z,1005.78
2018-09-03T07:16:31.636Z,1005.77
2018-09-03T07:17:31.670Z,1005.77
2018-09-03T07:18:31.674Z,1005.78
2018-09-03T07:19:31.710Z,1005.76
2018-09-03T07:20:31.735Z,1005.79
2018-09-03T07:21:31.755Z,1005.77
2018-09-03T07:22:31.783Z,1005.75
2018-09-03T07:23:31.790Z,1005.75
2018-09-03T07:24:31.811Z,1005.72
2018-09-03T07:26:31.852Z,1005.75
2018-09-03T07:27:31.878Z,1005.74
2018-09-03T07:28:31.893Z,1005.76
2018-09-03T07:30:31.940Z,1005.73
2018-09-03T07:31:31.962Z,1005.72
2018-09-03T07:32:31.998Z,1005.74
2018-09-03T07:33:32.007Z,1005.73
2018-09-03T07:34:32.724Z,1005.75
2018-09-03T07:35:32.081Z,1005.74
2018-09-03T07:36:32.068Z,1005.77
2018-09-03T07:37:32.099Z,1005.75
2018-09-03T07:38:32.124Z,1005.77
2018-09-03T07:39:32.155Z,1005.77
2018-09-03T07:40:32.168Z,1005.77
2018-09-03T07:41:32.192Z,1005.77
2018-09-03T07:42:32.216Z,1005.79
2018-09-03T07:43:32.255Z,1005.75
2018-09-03T07:44:32.250Z,1005.75
2018-09-03T07:45:32.277Z,1005.75
2018-09-03T07:46:32.294Z,1005.79
2018-09-03T07:47:32.331Z,1005.77
2018-09-03T07:48:32.342Z,1005.80
2018-09-03T07:49:32.361Z,1005.83
2018-09-03T07:50:32.382Z,1005.80
2018-09-03T07:51:32.407Z,1005.80
2018-09-03T07:52:32.428Z,1005.76
2018-09-03T07:53:32.446Z,1005.75
2018-09-03T07:54:32.467Z,1005.77
2018-09-03T07:55:32.493Z,1005.78
2018-09-03T07:56:32.522Z,1005.76
2018-09-03T07:57:32.537Z,1005.72
2018-09-03T07:58:32.557Z,1005.72
2018-09-03T07:59:32.583Z,1005.71
2018-09-03T08:00:32.596Z,1005.74
2018-09-03T08:01:32.619Z,1005.78
2018-09-03T08:02:32.643Z,1005.74
2018-09-03T08:03:32.661Z,1005.74
2018-09-03T08:04:32.707Z,1005.72
2018-09-03T08:05:32.721Z,1005.70
2018-09-03T08:07:32.833Z,1005.68
2018-09-03T08:08:32.780Z,1005.67
2018-09-03T08:09:32.846Z,1005.68
2018-09-03T08:10:32.828Z,1005.69
2018-09-03T08:11:32.847Z,1005.67
2018-09-03T08:12:32.871Z,1005.66
2018-09-03T08:13:32.900Z,1005.67
2018-09-03T08:14:32.907Z,1005.66
2018-09-03T08:15:32.941Z,1005.65
2018-09-03T08:16:32.958Z,1005.71
2018-09-03T08:17:32.978Z,1005.67
2018-09-03T08:18:33.001Z,1005.66
2018-09-03T08:19:33.016Z,1005.68
2018-09-03T08:20:33.045Z,1005.70
2018-09-03T08:21:33.067Z,1005.70
2018-09-03T08:22:33.088Z,1005.70
2018-09-03T08:23:33.108Z,1005.74
2018-09-03T08:24:33.130Z,1005.70
2018-09-03T08:25:33.151Z,1005.76
2018-09-03T08:26:33.199Z,1005.71
2018-09-03T08:27:33.197Z,1005.68
2018-09-03T08:28:33.219Z,1005.68
2018-09-03T08:29:33.240Z,1005.66
2018-09-03T08:30:33.276Z,1005.66
2018-09-03T08:31:33.403Z,1005.70
2018-09-03T08:32:33.312Z,1005.67
2018-09-03T08:33:33.346Z,1005.70
2018-09-03T08:34:33.357Z,1005.68
2018-09-03T08:35:33.380Z,1005.66
2018-09-03T08:36:33.391Z,1005.69
2018-09-03T08:37:33.437Z,1005.64
2018-09-03T08:38:33.450Z,1005.64
2018-09-03T08:39:33.474Z,1005.64
2018-09-03T08:40:33.500Z,1005.65
2018-09-03T08:41:33.502Z,1005.63
2018-09-03T08:42:33.672Z,1005.62
2018-09-03T08:43:33.550Z,1005.60
2018-09-03T08:44:33.572Z,1005.63
2018-09-03T08:45:33.600Z,1005.60
2018-09-03T08:46:33.620Z,1005.59
2018-09-03T08:47:33.639Z,1005.61
2018-09-03T08:48:33.662Z,1005.61
2018-09-03T08:49:33.687Z,1005.62
2018-09-03T08:50:33.707Z,1005.58
2018-09-03T08:51:33.719Z,1005.63
2018-09-03T08:52:33.759Z,1005.61
2018-09-03T08:53:33.776Z,1005.62
2018-09-03T08:54:33.791Z,1005.60
2018-09-03T08:55:33.834Z,1005.64
2018-09-03T08:56:33.837Z,1005.63
2018-09-03T08:57:33.863Z,1005.66
2018-09-03T08:58:33.889Z,1005.67
2018-09-03T08:59:33.900Z,1005.65
2018-09-03T09:00:33.957Z,1005.66
2018-09-03T09:01:34.760Z,1005.65
2018-09-03T09:02:33.968Z,1005.64
2018-09-03T09:03:33.999Z,1005.61
2018-09-03T09:04:34.013Z,1005.61
2018-09-03T09:05:34.055Z,1005.56
2018-09-03T09:06:34.092Z,1005.58
2018-09-03T09:07:34.085Z,1005.57
2018-09-03T09:08:34.109Z,1005.54
2018-09-03T09:09:34.124Z,1005.58
2018-09-03T09:10:34.177Z,1005.52
2018-09-03T09:11:34.176Z,1005.54
2018-09-03T09:12:34.202Z,1005.55
2018-09-03T09:13:34.213Z,1005.52
2018-09-03T09:14:34.254Z,1005.54
2018-09-03T09:15:34.257Z,1005.52
2018-09-03T09:16:34.278Z,1005.49
2018-09-03T09:17:34.348Z,1005.50
2018-09-03T09:18:34.325Z,1005.46
2018-09-03T09:19:34.359Z,1005.47
2018-09-03T09:20:34.366Z,1005.44
2018-09-03T09:21:34.404Z,1005.43
2018-09-03T09:22:34.425Z,1005.47
2018-09-03T09:23:34.440Z,1005.44
2018-09-03T09:24:34.512Z,1005.39
2018-09-03T09:25:34.486Z,1005.45
2018-09-03T09:27:34.525Z,1005.44
2018-09-03T09:28:34.563Z,1005.41
2018-09-03T09:29:34.572Z,1005.41
2018-09-03T09:30:34.634Z,1005.42
2018-09-03T09:31:34.618Z,1005.42
2018-09-03T09:32:34.640Z,1005.38
2018-09-03T09:33:34.685Z,1005.40
2018-09-03T09:34:34.688Z,1005.40
2018-09-03T09:35:34.712Z,1005.42
2018-09-03T09:36:34.736Z,1005.37
2018-09-03T09:37:34.760Z,1005.36
2018-09-03T09:38:34.793Z,1005.40
2018-09-03T09:39:34.803Z,1005.37
2018-09-03T09:40:34.822Z,1005.40
2018-09-03T09:41:34.847Z,1005.39
2018-09-03T09:42:34.906Z,1005.37
2018-09-03T09:43:34.889Z,1005.36
2018-09-03T09:44:34.916Z,1005.32
2018-09-03T09:45:35.010Z,1005.32
2018-09-03T09:46:34.961Z,1005.30
2018-09-03T09:47:34.977Z,1005.28
2018-09-03T09:48:35.006Z,1005.32
2018-09-03T09:49:35.024Z,1005.28
2018-09-03T09:50:35.065Z,1005.32
2018-09-03T09:51:35.076Z,1005.30
2018-09-03T09:52:35.095Z,1005.34
2018-09-03T09:53:35.120Z,1005.32
2018-09-03T09:54:35.138Z,1005.34
2018-09-03T09:55:35.172Z,1005.29
2018-09-03T09:56:35.194Z,1005.34
2018-09-03T09:57:35.215Z,1005.31
2018-09-03T09:58:35.249Z,1005.32
2018-09-03T09:59:35.251Z,1005.29
2018-09-03T10:00:35.278Z,1005.32
2018-09-03T10:01:35.303Z,1005.27
2018-09-03T10:02:35.320Z,1005.27
2018-09-03T10:03:35.346Z,1005.28
2018-09-03T10:04:35.365Z,1005.28
2018-09-03T10:05:35.389Z,1005.22
2018-09-03T10:06:35.413Z,1005.24
2018-09-03T10:07:35.431Z,1005.21
2018-09-03T10:09:35.505Z,1005.16
2018-09-03T10:10:35.500Z,1005.19
2018-09-03T10:11:35.542Z,1005.17
2018-09-03T10:12:35.564Z,1005.16
2018-09-03T10:13:35.570Z,1005.13
2018-09-03T10:15:35.623Z,1005.17
2018-09-03T10:16:35.634Z,1005.12
2018-09-03T10:17:35.668Z,1005.13
2018-09-03T10:18:35.684Z,1005.13
2018-09-03T10:19:35.715Z,1005.16
2018-09-03T10:20:35.798Z,1005.11
2018-09-03T10:21:35.752Z,1005.13
2018-09-03T10:22:35.775Z,1005.11
2018-09-03T10:23:35.799Z,1005.19
2018-09-03T10:24:35.823Z,1005.18
2018-09-03T10:25:35.840Z,1005.16
2018-09-03T10:26:35.863Z,1005.14
2018-09-03T10:27:35.905Z,1005.17
2018-09-03T10:28:35.912Z,1005.16
2018-09-03T10:29:35.941Z,1005.13
2018-09-03T10:30:35.963Z,1005.16
2018-09-03T10:31:36.027Z,1005.13
2018-09-03T10:32:36.004Z,1005.12
2018-09-03T10:33:36.028Z,1005.12
2018-09-03T10:34:38.042Z,1005.09
2018-09-03T10:35:36.074Z,1005.08
2018-09-03T10:36:36.112Z,1005.04
2018-09-03T10:37:36.114Z,1005.07
2018-09-03T10:38:36.143Z,1005.03
2018-09-03T10:39:36.169Z,1005.01
2018-09-03T10:40:36.192Z,1005.03
2018-09-03T10:41:36.213Z,1005.00
2018-09-03T10:42:36.229Z,1005.02
2018-09-03T10:43:36.247Z,1005.03
2018-09-03T10:44:36.309Z,1005.01
2018-09-03T10:45:36.330Z,1005.05
2018-09-03T10:46:36.330Z,1005.05
2018-09-03T10:47:36.355Z,1005.03
2018-09-03T10:48:36.389Z,1005.02
2018-09-03T10:49:36.393Z,1005.04
2018-09-03T10:50:36.407Z,1004.99
2018-09-03T10:51:36.445Z,1004.97
2018-09-03T10:52:36.469Z,1005.00
2018-09-03T10:53:36.482Z,1005.00
2018-09-03T10:54:36.510Z,1005.02
2018-09-03T10:55:36.528Z,1005.03
2018-09-03T10:56:36.552Z,1005.02
2018-09-03T10:57:36.579Z,1005.04
2018-09-03T10:58:36.598Z,1005.06
2018-09-03T10:59:36.616Z,1005.02
2018-09-03T11:00:36.636Z,1005.04
2018-09-03T11:01:36.671Z,1005.04
2018-09-03T11:02:36.688Z,1005.08
2018-09-03T11:03:36.708Z,1005.04
2018-09-03T11:04:36.729Z,1004.99
2018-09-03T11:05:36.750Z,1005.00
2018-09-03T11:06:36.867Z,1005.00
2018-09-03T11:07:36.794Z,1005.01
2018-09-03T11:08:36.894Z,1004.98
2018-09-03T11:09:36.843Z,1004.98
2018-09-03T11:10:36.868Z,1004.96
2018-09-03T11:11:36.885Z,1004.93
2018-09-03T11:12:36.918Z,1004.94
2018-09-03T11:13:36.945Z,1004.97
2018-09-03T11:14:36.974Z,1004.95
2018-09-03T11:15:36.988Z,1004.90
2018-09-03T11:16:37.010Z,1004.92
2018-09-03T11:17:37.033Z,1004.89
2018-09-03T11:18:37.054Z,1004.92
2018-09-03T11:19:37.150Z,1004.90
2018-09-03T11:20:37.094Z,1004.90
2018-09-03T11:21:37.230Z,1004.91
2018-09-03T11:22:37.141Z,1004.88
2018-09-03T11:23:37.168Z,1004.90
2018-09-03T11:24:37.188Z,1004.92
2018-09-03T11:25:37.212Z,1004.88
2018-09-03T11:26:37.232Z,1004.87
2018-09-03T11:27:37.266Z,1004.89
2018-09-03T11:28:37.294Z,1004.92
2018-09-03T11:29:37.310Z,1004.90
2018-09-03T11:30:37.479Z,1004.91
2018-09-03T11:31:37.361Z,1004.94
2018-09-03T11:32:37.394Z,1004.86
2018-09-03T11:33:37.395Z,1004.91
2018-09-03T11:34:37.440Z,1004.89
2018-09-03T11:35:37.457Z,1004.92
2018-09-03T11:36:37.470Z,1004.89
2018-09-03T11:37:37.504Z,1004.88
2018-09-03T11:38:37.515Z,1004.87
2018-09-03T11:39:37.541Z,1004.85
2018-09-03T11:40:37.568Z,1004.85
2018-09-03T11:41:37.588Z,1004.85
2018-09-03T11:42:37.612Z,1004.85
2018-09-03T11:43:37.639Z,1004.85
2018-09-03T11:44:37.655Z,1004.88
2018-09-03T11:45:37.678Z,1004.92
2018-09-03T11:47:37.728Z,1004.93
2018-09-03T11:48:37.767Z,1004.88
2018-09-03T11:49:37.778Z,1004.90
2018-09-03T11:50:37.805Z,1004.90
2018-09-03T11:51:37.831Z,1004.87
2018-09-03T11:52:37.844Z,1004.88
2018-09-03T11:53:37.865Z,1004.90
2018-09-03T11:54:38.048Z,1004.89
2018-09-03T11:55:37.916Z,1004.84
2018-09-03T11:56:37.935Z,1004.85
2018-09-03T11:57:37.979Z,1004.83
2018-09-03T11:58:37.990Z,1004.81
2018-09-03T11:59:38.034Z,1004.84
2018-09-03T12:00:38.066Z,1004.81
2018-09-03T12:01:38.056Z,1004.85
2018-09-03T12:02:38.078Z,1004.86
2018-09-03T12:03:38.142Z,1004.81
2018-09-03T12:04:38.123Z,1004.80
2018-09-03T12:05:38.177Z,1004.78
2018-09-03T12:06:38.177Z,1004.76
2018-09-03T12:07:38.199Z,1004.79
2018-09-03T12:08:38.224Z,1004.74
2018-09-03T12:10:38.295Z,1004.82
2018-09-03T12:11:38.290Z,1004.79
2018-09-03T12:12:38.308Z,1004.76
2018-09-03T12:13:38.376Z,1004.76
2018-09-03T12:14:38.361Z,1004.77
2018-09-03T12:15:38.382Z,1004.73
2018-09-03T12:16:38.401Z,1004.74